createdAt,value
2023-08-12T00:00:51.080Z,97600.00
2023-08-12T00:03:18.911Z,97597.16
2023-08-12T00:05:47.612Z,97586.75
2023-08-12T00:08:15.286Z,97583.53
2023-08-12T00:10:44.632Z,97586.03
2023-08-12T00:13:14.591Z,97590.59
2023-08-12T00:15:42.743Z,97589.75
2023-08-12T00:18:10.607Z,97584.38
2023-08-12T00:20:39.128Z,97583.06
2023-08-12T00:23:07.002Z,97579.38
2023-08-12T00:25:34.578Z,97574.34
2023-08-12T00:28:03.824Z,97567.28
2023-08-12T00:30:31.478Z,97564.78
2023-08-12T00:32:59.118Z,97564.59
2023-08-12T00:35:26.847Z,97560.44
2023-08-12T00:37:54.533Z,97561.91
2023-08-12T00:40:22.218Z,97555.91
2023-08-12T00:42:49.798Z,97561.28
2023-08-12T00:45:18.853Z,97552.84
2023-08-12T00:47:46.458Z,97561.28
2023-08-12T00:50:16.457Z,97550.69
2023-08-12T00:52:44.340Z,97559.75
2023-08-12T00:55:12.399Z,97562.63
2023-08-12T00:57:40.082Z,97568.19
2023-08-12T01:00:09.171Z,97567.34
2023-08-12T01:02:38.372Z,97563.16
2023-08-12T01:05:07.048Z,97573.22
2023-08-12T01:07:35.290Z,97565.88
2023-08-12T01:10:03.002Z,97557.97
2023-08-12T01:12:34.359Z,97560.66
2023-08-12T01:15:07.728Z,97564.72
2023-08-12T01:17:36.241Z,97560.53
2023-08-12T01:20:09.314Z,97562.38
2023-08-12T01:22:40.463Z,97558.03
2023-08-12T01:25:10.303Z,97563.56
2023-08-12T01:27:38.346Z,97570.44
2023-08-12T01:30:07.745Z,97568.78
2023-08-12T01:32:40.789Z,97559.41
2023-08-12T01:35:13.503Z,97562.44
2023-08-12T01:37:41.447Z,97554.72
2023-08-12T01:40:11.687Z,97560.78
2023-08-12T01:42:41.269Z,97547.38
2023-08-12T01:45:09.582Z,97562.78
2023-08-12T01:47:37.201Z,97560.09
2023-08-12T01:50:05.484Z,97552.75
2023-08-12T01:52:33.190Z,97574.53
2023-08-12T01:55:00.988Z,97568.84
2023-08-12T01:57:30.049Z,97568.34
2023-08-12T01:59:57.781Z,97562.00
2023-08-12T02:02:25.484Z,97573.41
2023-08-12T02:04:53.118Z,97562.88
2023-08-12T02:07:20.788Z,97562.88
2023-08-12T02:09:48.448Z,97566.22
2023-08-12T02:12:16.058Z,97576.59
2023-08-12T02:14:45.197Z,97588.78
2023-08-12T02:17:13.042Z,97599.97
2023-08-12T02:19:40.890Z,97606.78
2023-08-12T02:22:08.548Z,97613.22
2023-08-12T02:24:36.220Z,97598.75
2023-08-12T02:27:04.005Z,97609.03
2023-08-12T02:29:31.587Z,97612.31
2023-08-12T02:32:00.667Z,97618.63
2023-08-12T02:34:28.339Z,97634.09
2023-08-12T02:36:55.927Z,97658.72
2023-08-12T02:39:23.557Z,97666.47
2023-08-12T02:41:51.158Z,97651.66
2023-08-12T02:44:19.303Z,97600.50
2023-08-12T02:46:47.019Z,97606.00
2023-08-12T02:49:16.147Z,97605.53
2023-08-12T02:51:43.847Z,97598.53
2023-08-12T02:54:11.467Z,97598.81
2023-08-12T02:56:39.132Z,97591.38
2023-08-12T02:59:06.818Z,97589.59
2023-08-12T03:01:34.772Z,97590.44
2023-08-12T03:04:02.437Z,97585.44
2023-08-12T03:06:31.423Z,97567.44
2023-08-12T03:08:59.082Z,97558.72
2023-08-12T03:11:26.866Z,97568.13
2023-08-12T03:13:54.493Z,97564.75
2023-08-12T03:16:22.143Z,97571.78
2023-08-12T03:18:49.763Z,97596.34
2023-08-12T03:21:17.416Z,97588.44
2023-08-12T03:23:46.626Z,97564.97
2023-08-12T03:26:15.323Z,97554.78
2023-08-12T03:28:42.979Z,97549.69
2023-08-12T03:31:10.640Z,97545.38
2023-08-12T03:33:38.287Z,97536.91
2023-08-12T03:36:06.413Z,97528.03
2023-08-12T03:38:34.053Z,97527.53
2023-08-12T03:41:03.305Z,97532.25
2023-08-12T03:43:30.996Z,97528.59
2023-08-12T03:45:58.704Z,97518.72
2023-08-12T03:48:26.402Z,97517.06
2023-08-12T03:50:54.137Z,97525.75
2023-08-12T03:53:21.834Z,97522.94
2023-08-12T03:55:49.482Z,97520.25
2023-08-12T03:58:18.993Z,97517.25
2023-08-12T04:00:46.715Z,97521.75
2023-08-12T04:03:15.269Z,97503.69
2023-08-12T04:05:49.694Z,97517.06
2023-08-12T04:08:17.379Z,97507.84
2023-08-12T04:10:47.296Z,97514.88
2023-08-12T04:13:15.190Z,97514.56
2023-08-12T04:15:44.474Z,97495.78
2023-08-12T04:18:12.119Z,97486.56
2023-08-12T04:20:40.498Z,97500.50
2023-08-12T04:23:08.235Z,97510.56
2023-08-12T04:25:35.840Z,97509.56
2023-08-12T04:28:03.560Z,97495.34
2023-08-12T04:30:31.303Z,97492.00
2023-08-12T04:33:00.331Z,97496.69
2023-08-12T04:35:28.105Z,97492.19
2023-08-12T04:37:55.766Z,97473.13
2023-08-12T04:40:23.610Z,97473.81
2023-08-12T04:42:51.353Z,97476.03
2023-08-12T04:45:19.163Z,97474.03
2023-08-12T04:47:46.833Z,97461.81
2023-08-12T04:50:16.022Z,97480.22
2023-08-12T04:52:43.699Z,97454.47
2023-08-12T04:55:12.651Z,97464.88
2023-08-12T04:57:40.423Z,97416.28
2023-08-12T05:00:09.356Z,97457.00
2023-08-12T05:02:37.192Z,97471.31
2023-08-12T05:05:06.214Z,97471.81
2023-08-12T05:07:37.022Z,97462.63
2023-08-12T05:10:07.091Z,97458.78
2023-08-12T05:12:34.768Z,97470.31
2023-08-12T05:15:02.699Z,97463.63
2023-08-12T05:17:30.439Z,97469.50
2023-08-12T05:19:58.235Z,97465.81
2023-08-12T05:22:26.056Z,97468.50
2023-08-12T05:24:55.107Z,97460.81
2023-08-12T05:27:22.850Z,97458.78
2023-08-12T05:29:50.436Z,97447.72
2023-08-12T05:32:18.051Z,97475.22
2023-08-12T05:34:45.655Z,97486.25
2023-08-12T05:37:13.393Z,97477.41
2023-08-12T05:39:41.046Z,97479.41
2023-08-12T05:42:10.414Z,97485.78
2023-08-12T05:44:38.492Z,97494.16
2023-08-12T05:47:06.458Z,97496.97
2023-08-12T05:49:34.088Z,97500.47
2023-08-12T05:52:01.755Z,97502.44
2023-08-12T05:54:29.390Z,97504.41
2023-08-12T05:57:00.117Z,97507.97
2023-08-12T05:59:29.252Z,97516.47
2023-08-12T06:01:56.931Z,97516.75
2023-08-12T06:04:24.656Z,97522.88
2023-08-12T06:06:52.459Z,97525.50
2023-08-12T06:09:20.206Z,97526.34
2023-08-12T06:11:47.867Z,97533.41
2023-08-12T06:14:15.509Z,97535.31
2023-08-12T06:16:44.514Z,97534.78
2023-08-12T06:19:12.419Z,97535.31
2023-08-12T06:21:40.224Z,97533.66
2023-08-12T06:24:08.499Z,97529.88
2023-08-12T06:26:36.205Z,97542.31
2023-08-12T06:29:06.070Z,97547.50
2023-08-12T06:31:34.177Z,97541.53
2023-08-12T06:34:03.170Z,97542.00
2023-08-12T06:36:30.798Z,97545.69
2023-08-12T06:39:00.631Z,97547.16
2023-08-12T06:41:28.747Z,97553.97
2023-08-12T06:43:56.354Z,97550.34
2023-08-12T06:46:24.104Z,97553.41
2023-08-12T06:48:51.748Z,97565.38
2023-08-12T06:51:20.863Z,97560.22
2023-08-12T06:53:48.471Z,97567.41
2023-08-12T06:56:16.096Z,97567.72
2023-08-12T06:58:43.761Z,97565.38
2023-08-12T07:01:13.613Z,97564.72
2023-08-12T07:03:43.049Z,97561.09
2023-08-12T07:06:10.878Z,97570.94
2023-08-12T07:08:40.033Z,97566.13
2023-08-12T07:11:07.811Z,97559.44
2023-08-12T07:13:35.723Z,97557.50
2023-08-12T07:16:03.548Z,97479.16
2023-08-12T07:18:32.066Z,97538.59
2023-08-12T07:21:00.910Z,97544.28
2023-08-12T07:23:28.589Z,97538.81
2023-08-12T07:25:57.722Z,97535.13
2023-08-12T07:28:25.397Z,97535.75
2023-08-12T07:30:53.526Z,97542.75
2023-08-12T07:33:21.900Z,97554.66
2023-08-12T07:35:49.540Z,97558.84
2023-08-12T07:38:17.121Z,97571.00
2023-08-12T07:40:44.780Z,97535.88
2023-08-12T07:43:13.701Z,97543.09
2023-08-12T07:45:41.282Z,97552.28
2023-08-12T07:48:09.018Z,97549.94
2023-08-12T07:50:36.819Z,97552.28
2023-08-12T07:53:04.668Z,97553.84
2023-08-12T07:55:32.664Z,97546.00
2023-08-12T07:58:00.302Z,97557.13
2023-08-12T08:00:29.325Z,97549.75
2023-08-12T08:02:56.953Z,97543.72
2023-08-12T08:05:24.680Z,97554.09
2023-08-12T08:07:52.345Z,97549.31
2023-08-12T08:10:19.979Z,97547.78
2023-08-12T08:12:47.576Z,97557.16
2023-08-12T08:15:15.201Z,97564.03
2023-08-12T08:17:44.280Z,97561.53
2023-08-12T08:20:12.448Z,97562.38
2023-08-12T08:22:40.691Z,97569.25
2023-08-12T08:25:09.264Z,97570.56
2023-08-12T08:27:36.847Z,97558.00
2023-08-12T08:30:05.031Z,97555.50
2023-08-12T08:32:32.673Z,97556.50
2023-08-12T08:35:01.944Z,97549.44
2023-08-12T08:37:29.599Z,97557.13
2023-08-12T08:39:57.141Z,97545.41
2023-08-12T08:42:26.438Z,97542.59
2023-08-12T08:44:55.027Z,97545.47
2023-08-12T08:47:28.056Z,97549.16
2023-08-12T08:49:57.317Z,97541.94
2023-08-12T08:52:26.818Z,97536.91
2023-08-12T08:54:55.138Z,97550.47
2023-08-12T08:57:24.822Z,97551.13
2023-08-12T09:02:41.700Z,97555.31
2023-08-12T09:05:10.198Z,97544.44
2023-08-12T09:07:39.297Z,97545.44
2023-08-12T09:10:08.332Z,97528.34
2023-08-12T09:12:37.562Z,97528.34
2023-08-12T09:15:07.324Z,97521.47
2023-08-12T09:17:35.421Z,97519.94
2023-08-12T09:20:04.259Z,97524.28
2023-08-12T09:22:31.928Z,97514.84
2023-08-12T09:25:02.139Z,97527.38
2023-08-12T09:27:30.246Z,97525.16
2023-08-12T09:29:58.630Z,97526.66
2023-08-12T09:32:26.322Z,97531.84
2023-08-12T09:34:55.306Z,97530.50
2023-08-12T09:37:24.561Z,97531.56
2023-08-12T09:39:53.113Z,97507.03
2023-08-12T09:42:22.221Z,97527.25
2023-08-12T09:44:49.860Z,97521.81
2023-08-12T09:47:17.443Z,97537.94
2023-08-12T09:49:45.210Z,97541.22
2023-08-12T09:52:14.138Z,97545.16
2023-08-12T09:54:44.062Z,97548.84
2023-08-12T09:57:13.509Z,97557.31
2023-08-12T09:59:42.569Z,97559.94
2023-08-12T10:02:15.237Z,97578.94
2023-08-12T10:04:44.290Z,97575.41
2023-08-12T10:07:13.892Z,97592.88
2023-08-12T10:09:41.909Z,97610.47
2023-08-12T10:12:10.386Z,97617.00
2023-08-12T10:14:39.352Z,97625.50
2023-08-12T10:17:10.422Z,97625.00
2023-08-12T10:19:38.387Z,97612.72
2023-08-12T10:22:06.180Z,97599.13
2023-08-12T10:24:36.211Z,97593.13
2023-08-12T10:27:03.956Z,97582.41
2023-08-12T10:29:32.561Z,97567.47
2023-08-12T10:32:01.589Z,97553.06
2023-08-12T10:34:30.578Z,97562.97
2023-08-12T10:37:03.435Z,97554.25
2023-08-12T10:39:33.748Z,97546.22
2023-08-12T10:42:01.666Z,97571.81
2023-08-12T10:44:30.740Z,97545.34
2023-08-12T10:47:00.443Z,97537.16
2023-08-12T10:49:28.139Z,97558.59
2023-08-12T10:51:57.328Z,97535.66
2023-08-12T10:54:28.231Z,97509.19
2023-08-12T10:57:14.470Z,97510.22
2023-08-12T10:59:56.341Z,97529.34
2023-08-12T11:02:28.526Z,97514.25
2023-08-12T11:04:57.605Z,97506.00
2023-08-12T11:07:34.893Z,97523.53
2023-08-12T11:10:06.847Z,97501.06
2023-08-12T11:12:35.945Z,97506.38
2023-08-12T11:15:05.180Z,97501.66
2023-08-12T11:17:37.246Z,97488.84
2023-08-12T11:20:07.684Z,97477.44
2023-08-12T11:22:39.366Z,97468.28
2023-08-12T11:25:09.799Z,97473.72
2023-08-12T11:27:42.763Z,97473.31
2023-08-12T11:30:12.354Z,97426.84
2023-08-12T11:32:40.869Z,97460.13
2023-08-12T11:35:10.340Z,97434.94
2023-08-12T11:37:40.132Z,97439.50
2023-08-12T11:40:10.470Z,97461.81
2023-08-12T11:42:38.638Z,97474.19
2023-08-12T11:45:08.003Z,97485.19
2023-08-12T11:47:35.926Z,97495.22
2023-08-12T11:50:04.780Z,97503.44
2023-08-12T11:52:32.741Z,97502.63
2023-08-12T11:55:01.834Z,97504.28
2023-08-12T11:57:29.718Z,97510.25
2023-08-12T12:00:00.794Z,97522.41
2023-08-12T12:02:28.605Z,97534.28
2023-08-12T12:04:56.459Z,97550.06
2023-08-12T12:07:25.562Z,97559.81
2023-08-12T12:09:54.330Z,97541.28
2023-08-12T12:12:26.616Z,97542.75
2023-08-12T12:14:55.550Z,97544.25
2023-08-12T12:17:23.883Z,97542.41
2023-08-12T12:19:57.606Z,97544.56
2023-08-12T12:22:28.836Z,97550.81
2023-08-12T12:24:56.556Z,97552.13
2023-08-12T12:27:26.406Z,97550.69
2023-08-12T12:29:54.049Z,97550.47
2023-08-12T12:32:22.245Z,97549.72
2023-08-12T12:34:50.069Z,97555.34
2023-08-12T12:37:17.750Z,97550.06
2023-08-12T12:39:45.462Z,97550.13
2023-08-12T12:42:13.735Z,97544.16
2023-08-12T12:44:42.927Z,97545.78
2023-08-12T12:47:12.136Z,97531.00
2023-08-12T12:49:39.864Z,97532.66
2023-08-12T12:52:07.488Z,97533.25
2023-08-12T12:54:35.171Z,97529.16
2023-08-12T12:57:03.052Z,97536.00
2023-08-12T12:59:30.688Z,97523.94
2023-08-12T13:01:59.680Z,97515.81
2023-08-12T13:04:27.376Z,97519.31
2023-08-12T13:06:55.023Z,97516.34
2023-08-12T13:09:22.707Z,97526.03
2023-08-12T13:11:50.340Z,97530.09
2023-08-12T13:14:20.789Z,97531.09
2023-08-12T13:16:48.434Z,97531.44
2023-08-12T13:19:17.374Z,97522.06
2023-08-12T13:21:44.917Z,97526.81
2023-08-12T13:24:13.167Z,97522.00
2023-08-12T13:26:40.904Z,97508.22
2023-08-12T13:29:08.745Z,97513.25
2023-08-12T13:31:36.457Z,97510.25
2023-08-12T13:34:04.462Z,97512.38
2023-08-12T13:36:33.457Z,97504.84
2023-08-12T13:39:01.506Z,97499.22
2023-08-12T13:41:29.249Z,97506.16
2023-08-12T13:43:56.911Z,97507.91
2023-08-12T13:46:24.646Z,97493.78
2023-08-12T13:48:52.294Z,97491.56
2023-08-12T13:51:19.918Z,97504.53
2023-08-12T13:53:48.963Z,97506.56
2023-08-12T13:56:17.292Z,97501.72
2023-08-12T13:58:44.934Z,97504.94
2023-08-12T14:01:12.750Z,97518.56
2023-08-12T14:03:40.388Z,97513.69
2023-08-12T14:06:11.203Z,97509.88
2023-08-12T14:08:38.870Z,97508.53
2023-08-12T14:11:07.855Z,97506.03
2023-08-12T14:13:35.488Z,97506.91
2023-08-12T14:16:03.052Z,97497.88
2023-08-12T14:18:30.723Z,97493.41
2023-08-12T14:20:58.299Z,97493.84
2023-08-12T14:23:25.956Z,97479.25
2023-08-12T14:25:53.551Z,97450.22
2023-08-12T14:28:22.554Z,97468.94
2023-08-12T14:30:50.222Z,97468.31
2023-08-12T14:33:17.872Z,97472.00
2023-08-12T14:35:45.553Z,97455.59
2023-08-12T14:38:13.737Z,97477.84
2023-08-12T14:40:41.376Z,97474.97
2023-08-12T14:43:09.017Z,97482.38
2023-08-12T14:45:37.951Z,97476.25
2023-08-12T14:48:05.956Z,97469.31
2023-08-12T14:50:33.602Z,97460.13
2023-08-12T14:53:01.229Z,97469.19
2023-08-12T14:55:28.868Z,97459.75
2023-08-12T14:57:56.509Z,97453.84
2023-08-12T15:00:24.213Z,97464.06
2023-08-12T15:02:53.267Z,97451.53
2023-08-12T15:05:20.934Z,97471.81
2023-08-12T15:07:48.628Z,97467.34
2023-08-12T15:10:16.250Z,97459.75
2023-08-12T15:12:43.984Z,97473.81
2023-08-12T15:15:11.910Z,97461.50
2023-08-12T15:17:39.659Z,97456.63
2023-08-12T15:20:11.476Z,97467.34
2023-08-12T15:22:39.326Z,97463.72
2023-08-12T15:25:07.731Z,97459.84
2023-08-12T15:27:35.459Z,97463.47
2023-08-12T15:30:03.322Z,97420.22
2023-08-12T15:32:31.723Z,97449.16
2023-08-12T15:34:59.480Z,97475.31
2023-08-12T15:37:28.482Z,97473.38
2023-08-12T15:39:56.070Z,97471.63
2023-08-12T15:42:23.682Z,97472.09
2023-08-12T15:44:51.308Z,97474.78
2023-08-12T15:47:18.900Z,97482.97
2023-08-12T15:49:46.513Z,97487.06
2023-08-12T15:52:14.099Z,97485.56
2023-08-12T15:54:43.165Z,97475.31
2023-08-12T15:57:11.470Z,97491.38
2023-08-12T15:59:39.329Z,97490.09
2023-08-12T16:02:08.720Z,97456.84
2023-08-12T16:04:37.866Z,97481.34
2023-08-12T16:07:05.713Z,97489.59
2023-08-12T16:09:33.381Z,97483.22
2023-08-12T16:12:02.491Z,97486.47
2023-08-12T16:14:30.100Z,97486.19
2023-08-12T16:16:57.759Z,97478.47
2023-08-12T16:19:25.341Z,97490.97
2023-08-12T16:21:52.971Z,97481.25
2023-08-12T16:24:20.571Z,97491.66
2023-08-12T16:26:48.301Z,97489.25
2023-08-12T16:29:17.332Z,97490.81
2023-08-12T16:31:45.017Z,97489.16
2023-08-12T16:34:12.669Z,97498.72
2023-08-12T16:36:40.278Z,97488.66
2023-08-12T16:39:09.999Z,97493.31
2023-08-12T16:41:37.935Z,97495.16
2023-08-12T16:44:06.061Z,97509.25
2023-08-12T16:46:35.008Z,97504.00
2023-08-12T16:49:02.650Z,97515.00
2023-08-12T16:51:30.691Z,97511.13
2023-08-12T16:53:58.433Z,97510.13
2023-08-12T16:56:26.175Z,97503.31
2023-08-12T16:58:53.817Z,97497.16
2023-08-12T17:01:22.303Z,97490.41
2023-08-12T17:03:51.550Z,97491.41
2023-08-12T17:06:19.229Z,97502.25
2023-08-12T17:08:46.865Z,97496.22
2023-08-12T17:11:14.463Z,97503.53
2023-08-12T17:13:42.936Z,97512.31
2023-08-12T17:16:10.637Z,97516.94
2023-08-12T17:18:38.266Z,97520.94
2023-08-12T17:21:07.271Z,97512.81
2023-08-12T17:23:35.198Z,97520.94
2023-08-12T17:26:02.847Z,97523.84
2023-08-12T17:28:30.478Z,97522.91
2023-08-12T17:30:58.161Z,97512.75
2023-08-12T17:33:25.919Z,97520.09
2023-08-12T17:35:53.539Z,97509.97
2023-08-12T17:38:22.544Z,97502.16
2023-08-12T17:40:50.917Z,97504.47
2023-08-12T17:43:18.529Z,97516.41
2023-08-12T17:45:46.205Z,97508.91
2023-08-12T17:48:13.932Z,97503.28
2023-08-12T17:50:41.806Z,97514.59
2023-08-12T17:53:09.579Z,97518.66
2023-08-12T17:55:38.629Z,97523.00
2023-08-12T17:58:07.230Z,97513.69
2023-08-12T18:00:34.975Z,97520.13
2023-08-12T18:03:02.688Z,97525.25
2023-08-12T18:05:30.401Z,97529.38
2023-08-12T18:07:58.055Z,97532.09
2023-08-12T18:10:27.205Z,97534.84
2023-08-12T18:12:56.222Z,97526.00
2023-08-12T18:15:23.986Z,97529.88
2023-08-12T18:17:52.666Z,97522.53
2023-08-12T18:20:20.542Z,97527.97
2023-08-12T18:22:48.224Z,97532.63
2023-08-12T18:25:15.824Z,97522.28
2023-08-12T18:27:43.452Z,97531.34
2023-08-12T18:30:13.246Z,97530.03
2023-08-12T18:32:41.129Z,97533.88
2023-08-12T18:35:08.945Z,97530.66
2023-08-12T18:37:36.534Z,97532.72
2023-08-12T18:40:04.288Z,97533.88
2023-08-12T18:42:31.950Z,97531.72
2023-08-12T18:44:59.635Z,97537.75
2023-08-12T18:47:28.568Z,97545.94
2023-08-12T18:49:56.208Z,97530.69
2023-08-12T18:52:23.860Z,97535.38
2023-08-12T18:54:51.544Z,97549.13
2023-08-12T18:57:19.185Z,97544.41
2023-08-12T18:59:46.839Z,97546.41
2023-08-12T19:02:16.635Z,97547.75
2023-08-12T19:04:45.922Z,97551.28
2023-08-12T19:07:13.592Z,97553.78
2023-08-12T19:09:41.185Z,97563.16
2023-08-12T19:12:10.705Z,97564.13
2023-08-12T19:14:38.354Z,97560.44
2023-08-12T19:17:06.176Z,97564.78
2023-08-12T19:19:33.766Z,97574.31
2023-08-12T19:22:02.800Z,97566.94
2023-08-12T19:24:30.676Z,97569.13
2023-08-12T19:26:58.612Z,97571.97
2023-08-12T19:29:26.239Z,97570.63
2023-08-12T19:31:53.883Z,97573.13
2023-08-12T19:34:21.541Z,97572.28
2023-08-12T19:36:49.192Z,97568.16
2023-08-12T19:39:19.104Z,97564.28
2023-08-12T19:41:46.773Z,97576.50
2023-08-12T19:44:14.403Z,97578.84
2023-08-12T19:46:42.113Z,97577.16
2023-08-12T19:49:09.791Z,97586.88
2023-08-12T19:51:37.456Z,97584.34
2023-08-12T19:54:05.711Z,97583.50
2023-08-12T19:56:34.730Z,97583.84
2023-08-12T19:59:02.325Z,97594.72
2023-08-12T20:01:30.039Z,97597.25
2023-08-12T20:03:57.746Z,97607.91
2023-08-12T20:06:25.407Z,97594.50
2023-08-12T20:08:53.344Z,97601.88
2023-08-12T20:11:20.981Z,97602.66
2023-08-12T20:13:49.902Z,97604.81
2023-08-12T20:16:17.544Z,97603.47
2023-08-12T20:18:45.176Z,97609.47
2023-08-12T20:21:12.780Z,97617.66
2023-08-12T20:23:40.349Z,97624.16
2023-08-12T20:26:10.172Z,97626.16
2023-08-12T20:28:37.786Z,97614.59
2023-08-12T20:31:06.766Z,97618.50
2023-08-12T20:33:34.447Z,97619.63
2023-08-12T20:36:02.197Z,97622.78
2023-08-12T20:38:29.863Z,97613.91
2023-08-12T20:40:57.422Z,97614.38
2023-08-12T20:43:25.791Z,97619.50
2023-08-12T20:45:54.239Z,97620.81
2023-08-12T20:48:23.235Z,97608.38
2023-08-12T20:50:50.901Z,97621.94
2023-08-12T20:53:18.469Z,97617.03
2023-08-12T20:55:46.298Z,97613.16
2023-08-12T20:58:13.885Z,97617.00
2023-08-12T21:00:41.473Z,97626.19
2023-08-12T21:03:09.206Z,97631.16
2023-08-12T21:05:39.127Z,97626.63
2023-08-12T21:08:06.990Z,97631.16
2023-08-12T21:10:34.726Z,97629.47
2023-08-12T21:13:02.351Z,97637.66
2023-08-12T21:15:30.057Z,97640.19
2023-08-12T21:17:57.752Z,97637.66
2023-08-12T21:20:25.538Z,97645.53
2023-08-12T21:22:54.534Z,97642.00
2023-08-12T21:25:22.128Z,97648.19
2023-08-12T21:27:49.814Z,97648.03
2023-08-12T21:30:17.995Z,97650.25
2023-08-12T21:32:45.745Z,97642.59
2023-08-12T21:35:13.375Z,97652.16
2023-08-12T21:37:41.116Z,97653.00
2023-08-12T21:40:12.304Z,97650.97
2023-08-12T21:42:40.009Z,97651.16
2023-08-12T21:45:08.811Z,97656.50
2023-08-12T21:47:36.415Z,97654.34
2023-08-12T21:50:04.185Z,97658.06
2023-08-12T21:52:31.785Z,97658.44
2023-08-12T21:54:59.627Z,97653.09
2023-08-12T21:57:28.569Z,97655.75
2023-08-12T21:59:56.297Z,97650.59
2023-08-12T22:02:25.168Z,97647.22
2023-08-12T22:04:52.845Z,97653.72
2023-08-12T22:07:20.511Z,97659.22
2023-08-12T22:09:48.192Z,97654.63
2023-08-12T22:12:16.206Z,97652.34
2023-08-12T22:14:45.314Z,97669.41
2023-08-12T22:17:12.964Z,97657.00
2023-08-12T22:19:40.590Z,97656.03
2023-08-12T22:22:18.454Z,97657.00
2023-08-12T22:24:47.615Z,97652.34
2023-08-12T22:27:15.387Z,97651.50
2023-08-12T22:29:42.994Z,97648.69
2023-08-12T22:32:12.467Z,97656.53
2023-08-12T22:34:40.379Z,97651.88
2023-08-12T22:37:08.065Z,97659.41
2023-08-12T22:39:35.666Z,97654.88
2023-08-12T22:42:03.265Z,97654.34
2023-08-12T22:44:30.945Z,97653.66
2023-08-12T22:46:58.634Z,97656.31
2023-08-12T22:49:27.676Z,97650.13
2023-08-12T22:51:55.369Z,97643.13
2023-08-12T22:54:23.030Z,97651.59
2023-08-12T22:56:50.658Z,97636.88
2023-08-12T22:59:19.262Z,97637.56
2023-08-12T23:01:47.006Z,97641.25
2023-08-12T23:04:14.571Z,97639.84
2023-08-12T23:06:43.536Z,97635.13
2023-08-12T23:09:11.176Z,97632.47
2023-08-12T23:11:38.792Z,97629.72
2023-08-12T23:14:06.442Z,97640.03
2023-08-12T23:16:34.025Z,97635.00
2023-08-12T23:19:01.696Z,97636.22
2023-08-12T23:21:29.346Z,97604.72
2023-08-12T23:23:58.275Z,97638.00
2023-08-12T23:26:25.885Z,97630.59
2023-08-12T23:28:53.513Z,97636.22
2023-08-12T23:31:21.195Z,97632.88
2023-08-12T23:33:48.847Z,97631.47
2023-08-12T23:36:16.456Z,97634.59
2023-08-12T23:38:44.086Z,97635.50
2023-08-12T23:41:13.056Z,97629.47
2023-08-12T23:43:40.684Z,97637.66
2023-08-12T23:46:08.266Z,97631.25
2023-08-12T23:48:35.852Z,97636.38
2023-08-12T23:51:03.483Z,97643.81
2023-08-12T23:53:31.069Z,97637.78
2023-08-12T23:55:58.731Z,97615.56
2023-08-12T23:58:27.710Z,97620.09
